Sunday, June 17, 2018, 9:56 PM EDT
Back to Local

KSNC, Chester, Chester Airport

Location: Chester, CT, United States Lat: 41.384
Local Time: 9:56 PM EDT ( 1:56 GMT) Lon: -72.506
Time Zone: US/Eastern Elev: 416 ft

Show me the last for .
Show Decoded

2018-06-17 21:35 METAR KSNC 180135Z AUTO 21006KT 10SM CLR 21/14 A3008 RMK AO2 =
2018-06-17 21:15 METAR KSNC 180115Z AUTO 20006KT 10SM CLR 21/15 A3008 RMK AO2 =
2018-06-17 20:55 METAR KSNC 180055Z AUTO 19004KT 10SM CLR 22/15 A3008 RMK AO2 =
2018-06-17 20:35 METAR KSNC 180035Z AUTO 18005KT 10SM CLR 22/15 A3007 RMK AO2 =
2018-06-17 20:15 METAR KSNC 180015Z AUTO 17005KT 10SM CLR 22/15 A3008 RMK AO2 =
2018-06-17 19:55 METAR KSNC 172355Z AUTO 18004KT 10SM CLR 23/14 A3008 RMK AO2 =
2018-06-17 19:35 METAR KSNC 172335Z AUTO 18004KT 10SM CLR 24/13 A3008 RMK AO2 =
2018-06-17 19:15 METAR KSNC 172315Z AUTO 18005KT 10SM CLR 25/13 A3008 RMK AO2 =
2018-06-17 18:55 METAR KSNC 172255Z AUTO 17005KT 10SM CLR 26/13 A3008 RMK AO2 =
2018-06-17 18:35 METAR KSNC 172235Z AUTO 15004KT 10SM CLR 27/13 A3009 RMK AO2 =
2018-06-17 18:15 METAR KSNC 172215Z AUTO 17005KT 10SM CLR 28/13 A3008 RMK AO2 =
2018-06-17 17:55 METAR KSNC 172155Z AUTO 20005KT 10SM CLR 28/13 A3008 RMK AO2 =
2018-06-17 17:35 METAR KSNC 172135Z AUTO VRB04KT 10SM CLR 28/13 A3009 RMK AO2 =
2018-06-17 17:15 METAR KSNC 172115Z AUTO 19005G10KT 10SM CLR 29/13 A3008 RMK AO2 =
2018-06-17 16:55 METAR KSNC 172055Z AUTO 18006KT 10SM CLR 29/12 A3008 RMK AO2 =
2018-06-17 16:35 METAR KSNC 172035Z AUTO 18008KT 10SM CLR 30/10 A3008 RMK AO2 =
2018-06-17 16:15 METAR KSNC 172015Z AUTO 19007KT 170V240 10SM CLR 30/10 A3008 RMK AO2 =
2018-06-17 15:55 METAR KSNC 171955Z AUTO 19007KT 10SM CLR 30/10 A3008 RMK AO2 =
2018-06-17 14:55 METAR KSNC 171855Z AUTO 19008KT 10SM CLR 30/11 A3008 RMK AO2 =
2018-06-17 14:35 METAR KSNC 171835Z AUTO 19007G12KT 170V240 10SM CLR 30/11 A3007 RMK AO2 =
2018-06-17 14:15 METAR KSNC 171815Z AUTO 22008KT 190V250 10SM CLR 30/11 A3007 RMK AO2 =
2018-06-17 13:55 METAR KSNC 171755Z AUTO 22008KT 170V250 10SM CLR 30/12 A3007 RMK AO2 =
2018-06-17 13:35 METAR KSNC 171735Z AUTO 21007G13KT 10SM CLR 31/12 A3007 RMK AO2 =
2018-06-17 13:15 METAR KSNC 171715Z AUTO 00000KT 10SM CLR 31/07 A3008 RMK AO2 =
2018-06-17 12:55 METAR KSNC 171655Z AUTO VRB03KT 10SM CLR 30/08 A3008 RMK AO2 =
2018-06-17 12:35 METAR KSNC 171635Z AUTO 35005KT 10SM CLR 30/08 A3008 RMK AO2 =
2018-06-17 12:15 METAR KSNC 171615Z AUTO VRB03G10KT 10SM CLR 30/09 A3010 RMK AO2 =
2018-06-17 11:55 METAR KSNC 171555Z AUTO 02005KT 10SM CLR 30/09 A3010 RMK AO2 =
2018-06-17 11:35 METAR KSNC 171535Z AUTO 33006KT 10SM CLR 30/09 A3011 RMK AO2 =
2018-06-17 11:15 METAR KSNC 171515Z AUTO 31007KT 280V350 10SM CLR 29/10 A3011 RMK AO2 =
2018-06-17 10:55 METAR KSNC 171455Z AUTO 34005KT 10SM CLR 29/10 A3011 RMK AO2 =
2018-06-17 10:35 METAR KSNC 171435Z AUTO 32006KT 10SM CLR 30/10 A3010 RMK AO2 =
2018-06-17 10:15 METAR KSNC 171415Z AUTO 34006KT 10SM CLR 29/12 A3010 RMK AO2 =
2018-06-17 09:55 METAR KSNC 171355Z AUTO 00000KT 10SM CLR 29/13 A3009 RMK AO2 =
2018-06-17 09:35 METAR KSNC 171335Z AUTO 00000KT 10SM CLR 28/14 A3009 RMK AO2 =
2018-06-17 09:15 METAR KSNC 171315Z AUTO 36004KT 10SM CLR 27/13 A3009 RMK AO2 =
2018-06-17 08:55 METAR KSNC 171255Z AUTO 00000KT 10SM CLR 26/13 A3009 RMK AO2 =
2018-06-17 08:35 METAR KSNC 171235Z AUTO 01004KT 10SM CLR 25/13 A3009 RMK AO2 =
2018-06-17 08:15 METAR KSNC 171215Z AUTO 35006KT 10SM CLR 25/12 A3008 RMK AO2 =
2018-06-17 07:55 METAR KSNC 171155Z AUTO 34004KT 10SM CLR 24/13 A3008 RMK AO2 =
2018-06-17 07:35 METAR KSNC 171135Z AUTO 34003KT 10SM CLR 23/13 A3008 RMK AO2 =
2018-06-17 07:15 METAR KSNC 171115Z AUTO 33004KT 10SM CLR 21/13 A3008 RMK AO2 =
2018-06-17 06:55 METAR KSNC 171055Z AUTO 00000KT 10SM CLR 20/14 A3007 RMK AO2 =
2018-06-17 06:35 METAR KSNC 171035Z AUTO 00000KT 10SM CLR 17/13 A3007 RMK AO2 =
2018-06-17 06:15 METAR KSNC 171015Z AUTO 10SM CLR 16/12 A3006 RMK AO2 =
2018-06-17 05:55 METAR KSNC 170955Z AUTO 00000KT 10SM CLR 15/12 A3005 RMK AO2 =
2018-06-17 05:35 METAR KSNC 170935Z AUTO 30003KT 10SM CLR 15/12 A3005 RMK AO2 =
2018-06-17 05:15 METAR KSNC 170915Z AUTO 00000KT 10SM CLR 15/12 A3005 RMK AO2 =
2018-06-17 04:55 METAR KSNC 170855Z AUTO 10SM CLR 16/12 A3003 RMK AO2 =
2018-06-17 04:35 METAR KSNC 170835Z AUTO 00000KT 10SM CLR 17/12 A3004 RMK AO2 =
2018-06-17 04:15 METAR KSNC 170815Z AUTO 00000KT 10SM CLR 17/11 A3004 RMK AO2 =
2018-06-17 03:55 METAR KSNC 170755Z AUTO 00000KT 10SM CLR 18/11 A3004 RMK AO2 =
2018-06-17 03:35 METAR KSNC 170735Z AUTO VRB04KT 10SM CLR 18/11 A3004 RMK AO2 =
2018-06-17 03:15 METAR KSNC 170715Z AUTO 25005KT 10SM CLR 18/11 A3004 RMK AO2 =
2018-06-17 02:55 METAR KSNC 170655Z AUTO 24005KT 10SM CLR 18/11 A3003 RMK AO2 =
2018-06-17 02:35 METAR KSNC 170635Z AUTO 25006KT 10SM CLR 19/11 A3004 RMK AO2 =
2018-06-17 02:15 METAR KSNC 170615Z AUTO 24006KT 10SM CLR 19/11 A3004 RMK AO2 =
2018-06-17 01:55 METAR KSNC 170555Z AUTO 25006KT 10SM CLR 19/11 A3004 RMK AO2 =
2018-06-17 01:35 METAR KSNC 170535Z AUTO 24007KT 10SM CLR 19/11 A3003 RMK AO2 =
2018-06-17 01:15 METAR KSNC 170515Z AUTO 24007KT 10SM CLR 19/10 A3003 RMK AO2 =
2018-06-17 00:55 METAR KSNC 170455Z AUTO 24007KT 10SM CLR 19/10 A3004 RMK AO2 =
2018-06-17 00:35 METAR KSNC 170435Z AUTO 24007KT 10SM CLR 19/10 A3005 RMK AO2 =
2018-06-17 00:15 METAR KSNC 170415Z AUTO 24007KT 10SM CLR 19/10 A3005 RMK AO2 =
2018-06-16 23:55 METAR KSNC 170355Z AUTO 25006KT 10SM CLR 19/11 A3005 RMK AO2 =
2018-06-16 23:35 METAR KSNC 170335Z AUTO 24005KT 10SM CLR 19/11 A3005 RMK AO2 =
2018-06-16 23:15 METAR KSNC 170315Z AUTO 25006KT 10SM CLR 19/11 A3004 RMK AO2 =
2018-06-16 22:55 METAR KSNC 170255Z AUTO VRB06KT 10SM CLR 19/12 A3004 RMK AO2 =
2018-06-16 22:35 METAR KSNC 170235Z AUTO 25006KT 10SM CLR 20/11 A3003 RMK AO2 =
2018-06-16 22:15 METAR KSNC 170215Z AUTO 24006KT 10SM CLR 20/11 A3003 RMK AO2 =

Support USWX by starting your Amazon purchase here.